createdAt,value
2017-03-23T00:00:10.350Z,0
2017-03-23T00:01:33.033Z,0
2017-03-23T00:02:54.839Z,0
2017-03-23T00:04:17.158Z,0
2017-03-23T00:05:39.346Z,0
2017-03-23T00:07:01.771Z,0
2017-03-23T00:08:24.257Z,0
2017-03-23T00:09:46.461Z,0
2017-03-23T00:11:08.304Z,0
2017-03-23T00:12:30.721Z,0
2017-03-23T00:13:53.166Z,0
2017-03-23T00:15:15.009Z,0
2017-03-23T00:16:37.146Z,0
2017-03-23T00:17:59.345Z,0
2017-03-23T00:19:21.566Z,0
2017-03-23T00:20:43.394Z,0
2017-03-23T00:22:04.577Z,0
2017-03-23T00:23:26.770Z,0
2017-03-23T00:24:48.671Z,0
2017-03-23T00:26:11.225Z,0
2017-03-23T00:27:33.022Z,0
2017-03-23T00:28:55.408Z,0
2017-03-23T00:30:17.227Z,0
2017-03-23T00:31:38.734Z,0
2017-03-23T00:33:00.892Z,0
2017-03-23T00:34:22.946Z,0
2017-03-23T00:35:44.422Z,0
2017-03-23T00:37:06.879Z,0
2017-03-23T00:38:28.688Z,0
2017-03-23T00:39:51.160Z,0
2017-03-23T00:41:12.667Z,0
2017-03-23T00:42:34.565Z,0
2017-03-23T00:43:57.020Z,0
2017-03-23T00:45:19.437Z,0
2017-03-23T00:46:41.241Z,0
2017-03-23T00:48:03.435Z,0
2017-03-23T00:49:25.274Z,0
2017-03-23T00:50:47.780Z,0
2017-03-23T00:52:09.586Z,0
2017-03-23T00:53:31.708Z,0
2017-03-23T00:54:54.126Z,0
2017-03-23T00:56:16.170Z,0
2017-03-23T00:57:37.996Z,0
2017-03-23T00:58:59.806Z,0
2017-03-23T01:00:21.949Z,0
2017-03-23T01:01:44.461Z,0
2017-03-23T01:03:06.760Z,0
2017-03-23T01:04:28.571Z,0
2017-03-23T01:05:50.411Z,0
2017-03-23T01:07:12.154Z,0
2017-03-23T01:08:33.962Z,0
2017-03-23T01:09:56.114Z,0
2017-03-23T01:11:18.010Z,0
2017-03-23T01:12:40.637Z,0
2017-03-23T01:14:02.787Z,0
2017-03-23T01:15:24.716Z,0
2017-03-23T01:16:46.849Z,0
2017-03-23T01:18:09.318Z,0
2017-03-23T01:19:31.441Z,0
2017-03-23T01:20:53.555Z,0
2017-03-23T01:22:15.426Z,0
2017-03-23T01:23:37.918Z,0
2017-03-23T01:25:00.277Z,0
2017-03-23T01:26:22.465Z,0
2017-03-23T01:27:44.355Z,0
2017-03-23T01:29:06.504Z,0
2017-03-23T01:30:28.418Z,0
2017-03-23T01:31:50.559Z,0
2017-03-23T01:33:12.625Z,0
2017-03-23T01:34:34.726Z,0
2017-03-23T01:35:57.287Z,0
2017-03-23T01:37:19.201Z,0
2017-03-23T01:38:41.233Z,0
2017-03-23T01:40:03.343Z,0
2017-03-23T01:41:25.485Z,0
2017-03-23T01:42:48.045Z,0
2017-03-23T01:44:10.516Z,0
2017-03-23T01:45:32.627Z,0
2017-03-23T01:46:54.780Z,0
2017-03-23T01:48:16.587Z,0
2017-03-23T01:49:38.709Z,0
2017-03-23T01:51:01.428Z,0
2017-03-23T01:52:23.577Z,0
2017-03-23T01:53:46.004Z,0
2017-03-23T01:55:08.452Z,0
2017-03-23T01:56:29.997Z,0
2017-03-23T01:57:51.782Z,0
2017-03-23T01:59:13.900Z,0
2017-03-23T02:00:35.715Z,0
2017-03-23T02:01:58.444Z,0
2017-03-23T02:03:19.959Z,0
2017-03-23T02:04:41.761Z,0
2017-03-23T02:06:03.937Z,0
2017-03-23T02:07:26.007Z,0
2017-03-23T02:08:47.498Z,0
2017-03-23T02:10:08.985Z,0
2017-03-23T02:11:31.114Z,0
2017-03-23T02:12:53.491Z,0
2017-03-23T02:14:15.618Z,0
2017-03-23T02:15:37.878Z,0
2017-03-23T02:17:00.591Z,0
2017-03-23T02:18:23.066Z,0
2017-03-23T02:19:44.579Z,0
2017-03-23T02:21:06.399Z,0
2017-03-23T02:22:28.814Z,0
2017-03-23T02:23:50.912Z,0
2017-03-23T02:25:12.718Z,0
2017-03-23T02:26:35.137Z,0
2017-03-23T02:27:56.963Z,0
2017-03-23T02:29:19.165Z,0
2017-03-23T02:30:41.421Z,0
2017-03-23T02:32:03.544Z,0
2017-03-23T02:33:25.851Z,0
2017-03-23T02:34:47.585Z,0
2017-03-23T02:36:09.766Z,0
2017-03-23T02:37:31.534Z,0
2017-03-23T02:38:53.034Z,0
2017-03-23T02:40:15.120Z,0
2017-03-23T02:41:37.573Z,0
2017-03-23T02:42:59.685Z,0
2017-03-23T02:44:21.509Z,0
2017-03-23T02:45:43.740Z,0
2017-03-23T02:47:05.235Z,0
2017-03-23T02:48:27.454Z,0
2017-03-23T02:49:49.603Z,0
2017-03-23T02:51:12.526Z,0
2017-03-23T02:52:34.654Z,0
2017-03-23T02:53:56.814Z,0
2017-03-23T02:55:18.966Z,0
2017-03-23T02:56:41.435Z,0
2017-03-23T02:58:03.552Z,0
2017-03-23T02:59:25.349Z,0
2017-03-23T03:00:47.507Z,0
2017-03-23T03:02:10.607Z,0
2017-03-23T03:03:32.134Z,0
2017-03-23T03:04:53.713Z,0
2017-03-23T03:06:15.854Z,0
2017-03-23T03:07:38.330Z,0
2017-03-23T03:09:00.797Z,0
2017-03-23T03:10:22.309Z,0
2017-03-23T03:11:44.446Z,0
2017-03-23T03:13:06.819Z,0
2017-03-23T03:14:28.922Z,0
2017-03-23T03:15:51.354Z,0
2017-03-23T03:17:13.838Z,0
2017-03-23T03:18:36.498Z,0
2017-03-23T03:19:58.315Z,0
2017-03-23T03:21:20.455Z,0
2017-03-23T03:22:42.606Z,0
2017-03-23T03:24:04.496Z,0
2017-03-23T03:25:26.616Z,0
2017-03-23T03:26:48.479Z,0
2017-03-23T03:28:10.921Z,0
2017-03-23T03:29:33.367Z,0
2017-03-23T03:30:55.737Z,0
2017-03-23T03:32:17.970Z,0
2017-03-23T03:33:39.785Z,0
2017-03-23T03:35:02.580Z,0
2017-03-23T03:36:24.067Z,0
2017-03-23T03:37:45.945Z,0
2017-03-23T03:39:07.755Z,0
2017-03-23T03:40:30.766Z,0
2017-03-23T03:41:52.571Z,0
2017-03-23T03:43:14.155Z,0
2017-03-23T03:44:36.626Z,0
2017-03-23T03:45:58.750Z,0
2017-03-23T03:47:20.563Z,0
2017-03-23T03:48:42.809Z,0
2017-03-23T03:50:05.246Z,0
2017-03-23T03:51:27.406Z,0
2017-03-23T03:52:49.851Z,0
2017-03-23T03:54:12.025Z,0
2017-03-23T03:55:33.234Z,0
2017-03-23T03:56:55.423Z,0
2017-03-23T03:58:17.864Z,0
2017-03-23T03:59:39.688Z,0
2017-03-23T04:01:02.162Z,0
2017-03-23T04:02:24.801Z,0
2017-03-23T04:03:46.967Z,0
2017-03-23T04:05:08.819Z,0
2017-03-23T04:06:30.614Z,0
2017-03-23T04:07:52.408Z,0
2017-03-23T04:09:14.636Z,0
2017-03-23T04:10:36.767Z,0
2017-03-23T04:11:58.582Z,0
2017-03-23T04:13:21.078Z,0
2017-03-23T04:14:42.880Z,0
2017-03-23T04:16:04.682Z,0
2017-03-23T04:17:26.790Z,0
2017-03-23T04:18:48.897Z,0
2017-03-23T04:20:11.036Z,0
2017-03-23T04:21:33.193Z,0
2017-03-23T04:22:55.199Z,0
2017-03-23T04:24:17.635Z,0
2017-03-23T04:25:39.708Z,0
2017-03-23T04:27:01.924Z,0
2017-03-23T04:28:24.114Z,0
2017-03-23T04:29:46.556Z,0
2017-03-23T04:31:08.373Z,0
2017-03-23T04:32:30.316Z,0
2017-03-23T04:33:52.485Z,0
2017-03-23T04:35:14.306Z,0
2017-03-23T04:36:35.809Z,0
2017-03-23T04:37:57.310Z,0
2017-03-23T04:39:19.741Z,0
2017-03-23T04:40:41.869Z,0
2017-03-23T04:42:03.996Z,0
2017-03-23T04:43:25.937Z,0
2017-03-23T04:44:47.824Z,0
2017-03-23T04:46:10.018Z,0
2017-03-23T04:47:31.823Z,0
2017-03-23T04:48:53.615Z,0
2017-03-23T04:50:15.729Z,0
2017-03-23T04:51:38.221Z,0
2017-03-23T04:53:00.547Z,0
2017-03-23T04:54:22.746Z,0
2017-03-23T04:55:44.864Z,0
2017-03-23T04:57:07.045Z,0
2017-03-23T04:58:29.578Z,0
2017-03-23T04:59:51.785Z,0
2017-03-23T05:01:13.928Z,0
2017-03-23T05:02:36.355Z,0
2017-03-23T05:03:58.156Z,0
2017-03-23T05:05:19.966Z,0
2017-03-23T05:06:42.149Z,0
2017-03-23T05:08:04.515Z,0
2017-03-23T05:09:26.325Z,0
2017-03-23T05:10:47.864Z,0
2017-03-23T05:12:10.005Z,0
2017-03-23T05:13:32.165Z,0
2017-03-23T05:14:54.367Z,0
2017-03-23T05:16:16.513Z,0
2017-03-23T05:17:38.950Z,0
2017-03-23T05:19:01.053Z,5
2017-03-23T05:20:22.257Z,5
2017-03-23T05:21:44.106Z,5
2017-03-23T05:23:06.626Z,5
2017-03-23T05:24:29.366Z,5
2017-03-23T05:25:51.697Z,10
2017-03-23T05:27:13.824Z,10
2017-03-23T05:28:35.946Z,10
2017-03-23T05:29:58.640Z,10
2017-03-23T05:31:20.837Z,15
2017-03-23T05:32:43.286Z,15
2017-03-23T05:34:05.106Z,15
2017-03-23T05:35:27.176Z,15
2017-03-23T05:36:49.358Z,15
2017-03-23T05:38:11.580Z,20
2017-03-23T05:39:33.691Z,20
2017-03-23T05:40:56.415Z,20
2017-03-23T05:42:18.882Z,20
2017-03-23T05:43:41.033Z,25
2017-03-23T05:45:03.369Z,25
2017-03-23T05:46:25.421Z,25
2017-03-23T05:47:47.607Z,30
2017-03-23T05:49:10.078Z,30
2017-03-23T05:50:32.534Z,30
2017-03-23T05:51:54.958Z,30
2017-03-23T05:53:17.416Z,35
2017-03-23T05:54:39.245Z,35
2017-03-23T05:56:01.467Z,35
2017-03-23T05:57:23.636Z,40
2017-03-23T05:58:45.857Z,40
2017-03-23T06:00:07.779Z,45
2017-03-23T06:01:29.750Z,45
2017-03-23T06:02:52.496Z,50
2017-03-23T06:04:14.935Z,50
2017-03-23T06:05:37.474Z,55
2017-03-23T06:06:59.296Z,55
2017-03-23T06:08:21.799Z,55
2017-03-23T06:09:44.230Z,60
2017-03-23T06:11:06.084Z,65
2017-03-23T06:12:27.933Z,65
2017-03-23T06:13:50.638Z,70
2017-03-23T06:15:12.915Z,70
2017-03-23T06:16:35.450Z,70
2017-03-23T06:17:58.161Z,75
2017-03-23T06:19:19.923Z,75
2017-03-23T06:20:42.054Z,75
2017-03-23T06:22:04.184Z,75
2017-03-23T06:23:26.018Z,75
2017-03-23T06:24:48.436Z,75
2017-03-23T06:26:10.948Z,75
2017-03-23T06:27:33.272Z,75
2017-03-23T06:28:55.135Z,75
2017-03-23T06:30:17.230Z,75
2017-03-23T06:31:39.374Z,75
2017-03-23T06:33:01.725Z,75
2017-03-23T06:34:23.854Z,75
2017-03-23T06:35:46.607Z,80
2017-03-23T06:37:08.816Z,85
2017-03-23T06:38:30.946Z,90
2017-03-23T06:39:53.490Z,95
2017-03-23T06:41:16.246Z,105
2017-03-23T06:42:38.125Z,110
2017-03-23T06:44:00.263Z,115
2017-03-23T06:45:22.130Z,125
2017-03-23T06:46:44.244Z,130
2017-03-23T06:48:06.133Z,140
2017-03-23T06:49:28.585Z,145
2017-03-23T06:50:50.656Z,150
2017-03-23T06:52:13.046Z,150
2017-03-23T06:53:35.532Z,155
2017-03-23T06:54:58.023Z,160
2017-03-23T06:56:20.173Z,165
2017-03-23T06:57:42.303Z,175
2017-03-23T06:59:04.116Z,185
2017-03-23T07:00:26.377Z,215
2017-03-23T07:01:48.862Z,250
2017-03-23T07:03:11.256Z,220
2017-03-23T07:04:33.453Z,195
2017-03-23T07:05:55.268Z,180
2017-03-23T07:07:17.819Z,185
2017-03-23T07:08:39.616Z,165
2017-03-23T07:10:01.747Z,155
2017-03-23T07:11:23.270Z,150
2017-03-23T07:12:45.088Z,155
2017-03-23T07:14:07.151Z,150
2017-03-23T07:15:29.129Z,150
2017-03-23T07:16:51.349Z,150
2017-03-23T07:18:13.161Z,155
2017-03-23T07:19:35.872Z,160
2017-03-23T07:20:58.149Z,170
2017-03-23T07:22:20.636Z,180
2017-03-23T07:23:42.774Z,185
2017-03-23T07:25:05.542Z,185
2017-03-23T07:26:27.742Z,185
2017-03-23T07:27:49.307Z,180
2017-03-23T07:29:11.619Z,180
2017-03-23T07:30:34.311Z,180
2017-03-23T07:31:56.454Z,185
2017-03-23T07:33:18.264Z,195
2017-03-23T07:34:40.785Z,195
2017-03-23T07:36:03.487Z,180
2017-03-23T07:37:25.987Z,165
2017-03-23T07:38:47.798Z,160
2017-03-23T07:40:09.937Z,150
2017-03-23T07:41:32.048Z,150
2017-03-23T07:42:53.574Z,160
2017-03-23T07:44:16.030Z,170
2017-03-23T07:45:38.192Z,175
2017-03-23T07:47:01.166Z,175
2017-03-23T07:48:23.819Z,170
2017-03-23T07:49:45.955Z,170
2017-03-23T07:51:07.807Z,180
2017-03-23T07:52:30.204Z,185
2017-03-23T07:53:52.703Z,185
2017-03-23T07:55:14.615Z,190
2017-03-23T07:56:36.774Z,195
2017-03-23T07:57:59.231Z,200
2017-03-23T07:59:21.761Z,200
2017-03-23T08:00:44.170Z,205
2017-03-23T08:02:06.745Z,205
2017-03-23T08:03:29.556Z,215
2017-03-23T08:04:51.400Z,220
2017-03-23T08:06:13.580Z,225
2017-03-23T08:07:36.006Z,225
2017-03-23T08:08:58.971Z,230
2017-03-23T08:10:21.420Z,235
2017-03-23T08:11:43.881Z,240
2017-03-23T08:13:05.693Z,240
2017-03-23T08:14:28.450Z,240
2017-03-23T08:15:50.291Z,240
2017-03-23T08:17:12.147Z,250
2017-03-23T08:18:34.575Z,255
2017-03-23T08:19:57.105Z,260
2017-03-23T08:21:19.020Z,270
2017-03-23T08:22:40.956Z,275
2017-03-23T08:24:02.789Z,270
2017-03-23T08:25:25.310Z,260
2017-03-23T08:26:47.423Z,255
2017-03-23T08:28:09.584Z,260
2017-03-23T08:29:31.436Z,265
2017-03-23T08:30:54.197Z,270
2017-03-23T08:32:16.335Z,275
2017-03-23T08:33:38.901Z,295
2017-03-23T08:35:01.042Z,295
2017-03-23T08:36:23.255Z,300
2017-03-23T08:37:45.717Z,310
2017-03-23T08:39:07.886Z,315
2017-03-23T08:40:30.513Z,310
2017-03-23T08:41:53.145Z,300
2017-03-23T08:43:47.094Z,295
2017-03-23T08:45:08.516Z,290
2017-03-23T08:46:31.015Z,295
2017-03-23T08:47:53.229Z,300
2017-03-23T08:49:15.025Z,305
2017-03-23T08:50:37.505Z,290
2017-03-23T08:51:59.631Z,280
2017-03-23T08:53:22.015Z,270
2017-03-23T08:54:44.148Z,260
2017-03-23T08:56:06.074Z,260
2017-03-23T08:57:28.525Z,255
2017-03-23T08:58:51.010Z,255
2017-03-23T09:00:13.207Z,260
2017-03-23T09:01:35.327Z,265
2017-03-23T09:02:57.481Z,260
2017-03-23T09:04:20.255Z,265
2017-03-23T09:05:42.728Z,255
2017-03-23T09:07:04.868Z,255
2017-03-23T09:08:26.673Z,250
2017-03-23T09:09:48.687Z,255
2017-03-23T09:11:10.491Z,240
2017-03-23T09:12:32.788Z,230
2017-03-23T09:13:54.978Z,220
2017-03-23T09:15:17.086Z,215
2017-03-23T09:16:38.951Z,215
2017-03-23T09:18:00.792Z,210
2017-03-23T09:19:23.270Z,210
2017-03-23T09:20:45.343Z,215
2017-03-23T09:22:07.796Z,220
2017-03-23T09:23:30.542Z,230
2017-03-23T09:24:52.369Z,250
2017-03-23T09:26:14.851Z,265
2017-03-23T09:27:36.993Z,265
2017-03-23T09:28:59.129Z,270
2017-03-23T09:30:21.359Z,265
2017-03-23T09:31:44.076Z,265
2017-03-23T09:33:06.535Z,275
2017-03-23T09:34:28.993Z,290
2017-03-23T09:35:51.151Z,300
2017-03-23T09:37:13.619Z,310
2017-03-23T09:38:35.735Z,330
2017-03-23T09:39:57.616Z,350
2017-03-23T09:41:19.431Z,365
2017-03-23T09:42:41.173Z,370
2017-03-23T09:44:02.686Z,375
2017-03-23T09:45:25.319Z,385
2017-03-23T09:46:47.166Z,395
2017-03-23T09:48:08.967Z,390
2017-03-23T09:49:31.127Z,390
2017-03-23T09:50:53.273Z,380
2017-03-23T09:52:15.405Z,375
2017-03-23T09:53:37.528Z,375
2017-03-23T09:54:59.667Z,370
2017-03-23T09:56:21.838Z,365
2017-03-23T09:57:44.279Z,365
2017-03-23T09:59:07.036Z,350
2017-03-23T10:00:29.224Z,350
2017-03-23T10:01:51.686Z,345
2017-03-23T10:03:13.861Z,350
2017-03-23T10:04:36.363Z,350
2017-03-23T10:06:30.689Z,360
2017-03-23T10:07:52.821Z,360
2017-03-23T10:09:15.744Z,365
2017-03-23T10:10:37.873Z,370
2017-03-23T10:12:00.519Z,365
2017-03-23T10:13:22.350Z,355
2017-03-23T10:14:45.057Z,350
2017-03-23T10:16:06.909Z,350
2017-03-23T10:17:29.078Z,350
2017-03-23T10:18:51.226Z,360
2017-03-23T10:20:14.056Z,360
2017-03-23T10:21:36.479Z,355
2017-03-23T10:23:30.924Z,355
2017-03-23T10:24:53.671Z,360
2017-03-23T10:26:16.117Z,360
2017-03-23T10:27:38.730Z,355
2017-03-23T10:29:00.944Z,360
2017-03-23T10:30:23.795Z,370
2017-03-23T10:31:46.261Z,380
2017-03-23T10:33:08.716Z,375
2017-03-23T10:34:30.867Z,365
2017-03-23T10:35:53.258Z,365
2017-03-23T10:37:15.725Z,370
2017-03-23T10:38:38.174Z,380
2017-03-23T10:40:00.314Z,385
2017-03-23T10:41:22.777Z,390
2017-03-23T10:42:45.238Z,390
2017-03-23T10:44:07.375Z,380
2017-03-23T10:45:29.519Z,365
2017-03-23T10:46:52.379Z,355
2017-03-23T10:48:14.217Z,355
2017-03-23T10:49:36.698Z,370
2017-03-23T10:50:58.880Z,385
2017-03-23T10:52:21.581Z,385
2017-03-23T10:53:43.414Z,385
2017-03-23T10:55:05.608Z,370
2017-03-23T10:56:27.752Z,360
2017-03-23T10:57:50.332Z,370
2017-03-23T10:59:12.176Z,370
2017-03-23T11:00:34.447Z,360
2017-03-23T11:01:56.906Z,370
2017-03-23T11:03:19.402Z,360
2017-03-23T11:04:41.569Z,360
2017-03-23T11:06:03.081Z,365
2017-03-23T11:07:25.630Z,365
2017-03-23T11:08:48.831Z,365
2017-03-23T11:10:10.738Z,365
2017-03-23T11:12:05.174Z,365
2017-03-23T11:13:28.042Z,375
2017-03-23T11:14:49.855Z,385
2017-03-23T11:16:12.312Z,390
2017-03-23T11:17:34.463Z,385
2017-03-23T11:18:56.646Z,380
2017-03-23T11:20:18.789Z,380
2017-03-23T11:21:40.963Z,385
2017-03-23T11:23:02.486Z,385
2017-03-23T11:24:24.576Z,385
2017-03-23T11:25:46.729Z,390
2017-03-23T11:27:09.211Z,385
2017-03-23T11:28:31.711Z,380
2017-03-23T11:29:54.677Z,380
2017-03-23T11:31:17.140Z,395
2017-03-23T11:32:38.957Z,415
2017-03-23T11:34:01.506Z,410
2017-03-23T11:35:24.206Z,405
2017-03-23T11:36:46.726Z,395
2017-03-23T11:38:08.558Z,390
2017-03-23T11:39:30.717Z,370
2017-03-23T11:40:53.206Z,355
2017-03-23T11:42:15.043Z,345
2017-03-23T11:43:37.285Z,340
2017-03-23T11:44:59.539Z,330
2017-03-23T11:46:21.908Z,320
2017-03-23T11:47:44.054Z,315
2017-03-23T11:49:05.895Z,315
2017-03-23T11:50:27.713Z,310
2017-03-23T11:51:50.146Z,310
2017-03-23T11:53:12.655Z,320
2017-03-23T11:54:35.125Z,320
2017-03-23T11:55:57.256Z,315
2017-03-23T11:57:19.746Z,305
2017-03-23T11:58:41.267Z,305
2017-03-23T12:00:03.096Z,310
2017-03-23T12:01:24.944Z,310
2017-03-23T12:02:47.111Z,310
2017-03-23T12:04:09.267Z,315
2017-03-23T12:05:31.447Z,320
2017-03-23T12:06:53.612Z,330
2017-03-23T12:08:16.060Z,335
2017-03-23T12:09:38.543Z,340
2017-03-23T12:11:01.087Z,340
2017-03-23T12:12:23.223Z,345
2017-03-23T12:13:45.786Z,345
2017-03-23T12:15:07.655Z,350
2017-03-23T12:16:29.495Z,350
2017-03-23T12:17:51.633Z,360
2017-03-23T12:19:13.819Z,355
2017-03-23T12:20:35.965Z,350
2017-03-23T12:21:58.137Z,350
2017-03-23T12:23:20.595Z,335
2017-03-23T12:24:42.670Z,330
2017-03-23T12:26:04.834Z,315
2017-03-23T12:27:26.964Z,315
2017-03-23T12:28:49.724Z,320
2017-03-23T12:30:12.256Z,310
2017-03-23T12:31:34.705Z,325
2017-03-23T12:32:56.966Z,335
2017-03-23T12:34:18.793Z,350
2017-03-23T12:35:41.583Z,370
2017-03-23T12:37:04.109Z,370
2017-03-23T12:38:26.588Z,360
2017-03-23T12:39:48.521Z,360
2017-03-23T12:41:11.336Z,350
2017-03-23T12:42:33.791Z,335
2017-03-23T12:43:55.978Z,335
2017-03-23T12:45:18.186Z,330
2017-03-23T12:46:40.991Z,330
2017-03-23T12:48:02.948Z,335
2017-03-23T12:49:25.585Z,330
2017-03-23T12:50:47.877Z,315
2017-03-23T12:52:10.562Z,320
2017-03-23T12:53:33.020Z,335
2017-03-23T12:54:55.493Z,325
2017-03-23T12:56:17.647Z,310
2017-03-23T12:57:40.028Z,300
2017-03-23T12:59:02.240Z,305
2017-03-23T13:00:24.694Z,305
2017-03-23T13:01:46.847Z,290
2017-03-23T13:03:09.013Z,300
2017-03-23T13:04:31.560Z,310
2017-03-23T13:05:53.711Z,300
2017-03-23T13:07:16.224Z,285
2017-03-23T13:08:38.725Z,265
2017-03-23T13:10:00.301Z,235
2017-03-23T13:11:22.536Z,230
2017-03-23T13:12:44.896Z,235
2017-03-23T13:14:07.339Z,255
2017-03-23T13:15:29.175Z,260
2017-03-23T13:16:51.638Z,265
2017-03-23T13:18:13.570Z,265
2017-03-23T13:19:36.357Z,250
2017-03-23T13:20:58.507Z,255
2017-03-23T13:22:20.696Z,255
2017-03-23T13:23:43.156Z,265
2017-03-23T13:25:05.408Z,270
2017-03-23T13:26:27.972Z,270
2017-03-23T13:27:50.094Z,265
2017-03-23T13:29:12.545Z,250
2017-03-23T13:30:34.998Z,240
2017-03-23T13:31:57.407Z,245
2017-03-23T13:33:19.237Z,250
2017-03-23T13:34:41.799Z,255
2017-03-23T13:36:04.206Z,260
2017-03-23T13:37:26.072Z,265
2017-03-23T13:38:48.792Z,265
2017-03-23T13:40:10.930Z,265
2017-03-23T13:41:33.368Z,250
2017-03-23T13:42:55.617Z,240
2017-03-23T13:44:17.756Z,235
2017-03-23T13:45:39.580Z,240
2017-03-23T13:47:01.063Z,240
2017-03-23T13:48:23.592Z,225
2017-03-23T13:49:46.059Z,220
2017-03-23T13:51:08.557Z,225
2017-03-23T13:52:31.414Z,205
2017-03-23T13:53:53.350Z,215
2017-03-23T13:55:15.882Z,225
2017-03-23T13:56:38.029Z,215
2017-03-23T13:58:00.778Z,200
2017-03-23T13:59:22.983Z,200
2017-03-23T14:00:44.921Z,180
2017-03-23T14:02:07.084Z,180
2017-03-23T14:03:29.206Z,170
2017-03-23T14:04:51.671Z,155
2017-03-23T14:06:13.503Z,150
2017-03-23T14:07:35.533Z,160
2017-03-23T14:08:58.288Z,165
2017-03-23T14:10:20.423Z,170
2017-03-23T14:11:42.889Z,165
2017-03-23T14:13:05.480Z,155
2017-03-23T14:14:28.211Z,155
2017-03-23T14:15:50.685Z,165
2017-03-23T14:17:13.388Z,170
2017-03-23T14:18:35.887Z,175
2017-03-23T14:19:58.777Z,180
2017-03-23T14:21:21.229Z,185
2017-03-23T14:22:43.581Z,185
2017-03-23T14:24:06.027Z,190
2017-03-23T14:25:28.735Z,185
2017-03-23T14:26:50.927Z,195
2017-03-23T14:28:13.399Z,190
2017-03-23T14:29:35.537Z,185
2017-03-23T14:30:58.184Z,185
2017-03-23T14:32:20.670Z,190
2017-03-23T14:33:43.117Z,170
2017-03-23T14:35:05.268Z,160
2017-03-23T14:36:28.037Z,160
2017-03-23T14:37:50.607Z,155
2017-03-23T14:39:13.041Z,155
2017-03-23T14:40:34.545Z,160
2017-03-23T14:41:56.995Z,160
2017-03-23T14:43:19.195Z,165
2017-03-23T14:44:41.436Z,185
2017-03-23T14:46:03.110Z,195
2017-03-23T14:47:25.616Z,200
2017-03-23T14:48:48.106Z,200
2017-03-23T14:50:10.380Z,195
2017-03-23T14:51:32.527Z,195
2017-03-23T14:52:54.908Z,195
2017-03-23T14:54:17.467Z,205
2017-03-23T14:55:39.274Z,195
2017-03-23T14:57:01.480Z,200
2017-03-23T14:58:24.389Z,200
2017-03-23T14:59:46.860Z,195
2017-03-23T15:01:09.488Z,200
2017-03-23T15:02:31.421Z,210
2017-03-23T15:03:54.158Z,210
2017-03-23T15:05:16.309Z,210
2017-03-23T15:06:38.522Z,205
2017-03-23T15:08:00.692Z,200
2017-03-23T15:09:23.477Z,190
2017-03-23T15:10:45.935Z,180
2017-03-23T15:12:08.116Z,165
2017-03-23T15:13:30.265Z,150
2017-03-23T15:14:52.874Z,140
2017-03-23T15:16:15.138Z,135
2017-03-23T15:17:37.600Z,130
2017-03-23T15:19:00.069Z,130
2017-03-23T15:20:22.877Z,125
2017-03-23T15:21:44.708Z,120
2017-03-23T15:23:06.888Z,125
2017-03-23T15:24:29.050Z,115
2017-03-23T15:25:51.496Z,105
2017-03-23T15:27:13.955Z,100
2017-03-23T15:28:36.445Z,100
2017-03-23T15:29:58.601Z,105
2017-03-23T15:31:21.418Z,105
2017-03-23T15:32:43.584Z,105
2017-03-23T15:34:06.067Z,110
2017-03-23T15:35:28.220Z,115
2017-03-23T15:36:50.998Z,105
2017-03-23T15:38:13.473Z,110
2017-03-23T15:39:36.050Z,105
2017-03-23T15:40:58.203Z,100
2017-03-23T15:42:52.756Z,95
2017-03-23T15:44:14.898Z,95
2017-03-23T15:45:37.522Z,95
2017-03-23T15:46:59.977Z,95
2017-03-23T15:48:22.460Z,95
2017-03-23T15:49:44.947Z,90
2017-03-23T15:51:07.457Z,85
2017-03-23T15:52:30.159Z,90
2017-03-23T15:53:52.760Z,95
2017-03-23T15:55:15.450Z,95
2017-03-23T15:56:37.946Z,95
2017-03-23T15:57:59.755Z,90
2017-03-23T15:59:22.486Z,85
2017-03-23T16:00:44.689Z,80
2017-03-23T16:02:07.182Z,85
2017-03-23T16:03:29.655Z,80
2017-03-23T16:04:52.545Z,80
2017-03-23T16:06:15.145Z,80
2017-03-23T16:07:37.316Z,85
2017-03-23T16:08:59.788Z,85
2017-03-23T16:10:22.647Z,85
2017-03-23T16:11:44.465Z,85
2017-03-23T16:13:06.680Z,85
2017-03-23T16:14:28.903Z,85
2017-03-23T16:15:51.437Z,90
2017-03-23T16:17:13.591Z,90
2017-03-23T16:18:36.174Z,85
2017-03-23T16:19:58.646Z,80
2017-03-23T16:21:21.668Z,75
2017-03-23T16:22:44.157Z,65
2017-03-23T16:24:06.937Z,60
2017-03-23T16:25:29.098Z,60
2017-03-23T16:26:52.060Z,60
2017-03-23T16:28:14.555Z,55
2017-03-23T16:29:36.767Z,55
2017-03-23T16:30:59.240Z,50
2017-03-23T16:32:22.020Z,50
2017-03-23T16:33:44.553Z,50
2017-03-23T16:35:07.259Z,50
2017-03-23T16:36:29.776Z,50
2017-03-23T16:37:52.491Z,50
2017-03-23T16:39:14.792Z,50
2017-03-23T16:40:37.276Z,50
2017-03-23T16:41:59.496Z,45
2017-03-23T16:43:21.938Z,45
2017-03-23T16:44:44.206Z,50
2017-03-23T16:46:07.709Z,50
2017-03-23T16:47:29.842Z,50
2017-03-23T16:48:52.613Z,50
2017-03-23T16:50:15.100Z,45
2017-03-23T16:51:36.937Z,45
2017-03-23T16:52:59.577Z,50
2017-03-23T16:54:51.281Z,45
2017-03-23T16:56:13.440Z,45
2017-03-23T16:57:35.628Z,40
2017-03-23T16:58:58.159Z,35
2017-03-23T17:00:20.767Z,35
2017-03-23T17:01:43.257Z,30
2017-03-23T17:03:05.754Z,25
2017-03-23T17:04:28.239Z,25
2017-03-23T17:05:51.077Z,25
2017-03-23T17:07:13.596Z,20
2017-03-23T17:08:36.214Z,20
2017-03-23T17:09:58.706Z,20
2017-03-23T17:11:21.490Z,20
2017-03-23T17:12:44.011Z,15
2017-03-23T17:14:06.196Z,15
2017-03-23T17:15:28.416Z,15
2017-03-23T17:16:50.672Z,15
2017-03-23T17:18:13.170Z,10
2017-03-23T17:19:35.737Z,10
2017-03-23T17:20:57.573Z,10
2017-03-23T17:22:20.393Z,10
2017-03-23T17:23:42.906Z,10
2017-03-23T17:25:05.508Z,10
2017-03-23T17:26:27.688Z,10
2017-03-23T17:27:50.409Z,10
2017-03-23T17:29:12.917Z,5
2017-03-23T17:30:35.391Z,5
2017-03-23T17:31:57.656Z,5
2017-03-23T17:33:20.520Z,5
2017-03-23T17:34:42.750Z,5
2017-03-23T17:36:04.940Z,5
2017-03-23T17:37:27.769Z,5
2017-03-23T17:38:49.942Z,0
2017-03-23T17:40:12.467Z,0
2017-03-23T17:41:34.625Z,0
2017-03-23T17:42:57.136Z,0
2017-03-23T17:44:19.798Z,0
2017-03-23T17:45:41.959Z,0
2017-03-23T17:47:04.126Z,0
2017-03-23T17:48:26.385Z,0
2017-03-23T17:49:49.255Z,0
2017-03-23T17:51:11.772Z,0
2017-03-23T17:52:33.935Z,0
2017-03-23T17:53:56.448Z,0
2017-03-23T17:55:19.222Z,0
2017-03-23T17:56:41.769Z,0
2017-03-23T17:58:04.078Z,0
2017-03-23T17:59:26.259Z,0
2017-03-23T18:00:49.170Z,0
2017-03-23T18:02:11.698Z,0
2017-03-23T18:03:34.279Z,0
2017-03-23T18:04:56.886Z,0
2017-03-23T18:06:19.057Z,0
2017-03-23T18:07:41.018Z,0
2017-03-23T18:09:03.219Z,0
2017-03-23T18:10:25.982Z,0
2017-03-23T18:11:48.702Z,0
2017-03-23T18:13:11.036Z,0
2017-03-23T18:14:33.546Z,0
2017-03-23T18:15:55.784Z,0
2017-03-23T18:17:18.569Z,0
2017-03-23T18:18:40.454Z,0
2017-03-23T18:20:02.211Z,0
2017-03-23T18:21:24.672Z,0
2017-03-23T18:22:46.799Z,0
2017-03-23T18:24:09.003Z,0
2017-03-23T18:25:31.321Z,0
2017-03-23T18:26:53.838Z,0
2017-03-23T18:28:16.095Z,0
2017-03-23T18:29:38.601Z,0
2017-03-23T18:31:01.104Z,0
2017-03-23T18:32:23.307Z,0
2017-03-23T18:33:46.117Z,0
2017-03-23T18:35:08.673Z,0
2017-03-23T18:36:31.165Z,0
2017-03-23T18:37:53.436Z,0
2017-03-23T18:39:16.841Z,0
2017-03-23T18:40:39.341Z,0
2017-03-23T18:42:01.514Z,0
2017-03-23T18:43:23.724Z,0
2017-03-23T18:44:46.487Z,0
2017-03-23T18:46:09.013Z,0
2017-03-23T18:47:31.496Z,0
2017-03-23T18:48:54.042Z,0
2017-03-23T18:50:16.819Z,0
2017-03-23T18:51:39.305Z,0
2017-03-23T18:53:01.554Z,0
2017-03-23T18:54:23.737Z,0
2017-03-23T18:55:45.511Z,0
2017-03-23T18:57:07.995Z,0
2017-03-23T18:58:30.293Z,0
2017-03-23T18:59:52.809Z,0
2017-03-23T19:01:15.598Z,0
2017-03-23T19:02:37.799Z,0
2017-03-23T19:03:59.747Z,0
2017-03-23T19:05:22.237Z,0
2017-03-23T19:06:43.997Z,0
2017-03-23T19:08:06.556Z,0
2017-03-23T19:09:29.318Z,0
2017-03-23T19:10:51.530Z,0
2017-03-23T19:12:14.589Z,0
2017-03-23T19:13:36.801Z,0
2017-03-23T19:14:59.330Z,0
2017-03-23T19:16:21.876Z,0
2017-03-23T19:17:44.617Z,0
2017-03-23T19:19:07.309Z,0
2017-03-23T19:20:29.766Z,0
2017-03-23T19:21:52.006Z,0
2017-03-23T19:23:14.756Z,0
2017-03-23T19:24:37.319Z,0
2017-03-23T19:25:59.479Z,0
2017-03-23T19:27:21.999Z,0
2017-03-23T19:29:16.916Z,0
2017-03-23T19:30:39.587Z,0
2017-03-23T19:32:02.077Z,0
2017-03-23T19:33:24.805Z,0